Time;durP1;ratioP1;P1;durP2;ratioP2;P2;SDS_P1;SDS_P2;PMS_P1;PMS_P2;Temp;Humidity;BMP_temperature;BMP_pressure;BME280_temperature;BME280_humidity;BME280_pressure;Samples;Min_cycle;Max_cycle;Signal;HPM_P1;HPM_P2
2021/10/12 00:00:17;;;;;;;0.70;0.70;;;11.30;77.30;;;;;;4946304;29;20241;-71
2021/10/12 00:02:44;;;;;;;1.00;1.00;;;11.30;77.40;;;;;;4943014;29;20555;-71
2021/10/12 00:05:13;;;;;;;1.70;0.93;;;11.30;77.50;;;;;;4945463;28;20214;-71
2021/10/12 00:07:40;;;;;;;0.80;0.80;;;11.30;77.50;;;;;;4946441;29;20236;-70
2021/10/12 00:10:08;;;;;;;0.73;0.73;;;11.30;77.70;;;;;;4942271;28;20683;-71
2021/10/12 00:12:35;;;;;;;0.67;0.63;;;11.20;77.90;;;;;;4937702;28;20218;-71
2021/10/12 00:15:03;;;;;;;0.67;0.67;;;11.20;78.20;;;;;;4949477;29;20218;-71
2021/10/12 00:17:30;;;;;;;0.83;0.83;;;11.20;78.40;;;;;;4942322;29;20218;-71
2021/10/12 00:19:57;;;;;;;0.63;0.50;;;11.20;78.30;;;;;;4952703;28;20328;-71
2021/10/12 00:22:24;;;;;;;0.30;0.30;;;11.20;78.20;;;;;;4943619;29;20297;-71
2021/10/12 00:24:51;;;;;;;0.40;0.40;;;11.30;78.20;;;;;;4943077;28;20221;-71
2021/10/12 00:27:18;;;;;;;1.43;1.27;;;11.30;78.10;;;;;;4950255;29;20242;-71
2021/10/12 00:29:45;;;;;;;0.50;0.50;;;11.30;78.10;;;;;;4945075;29;20261;-71
2021/10/12 00:32:12;;;;;;;0.33;0.33;;;11.30;78.10;;;;;;4943081;28;20290;-70
2021/10/12 00:34:39;;;;;;;0.77;0.77;;;11.30;77.90;;;;;;4948515;29;20650;-70
2021/10/12 00:37:06;;;;;;;0.50;0.50;;;11.30;77.80;;;;;;4942336;29;20281;-70
2021/10/12 00:39:33;;;;;;;0.20;0.20;;;11.30;77.90;;;;;;4948245;28;20751;-71
2021/10/12 00:42:01;;;;;;;0.87;0.80;;;11.30;77.90;;;;;;4953998;28;20225;-70
2021/10/12 00:44:28;;;;;;;1.10;1.10;;;11.30;77.80;;;;;;4945953;28;20214;-70
2021/10/12 00:46:55;;;;;;;0.63;0.63;;;11.30;77.80;;;;;;4947983;29;20218;-71
2021/10/12 00:49:23;;;;;;;0.67;0.67;;;11.30;78.00;;;;;;4953804;28;20222;-71
2021/10/12 00:51:50;;;;;;;1.10;0.90;;;11.20;78.00;;;;;;4963790;28;20543;-71
2021/10/12 00:54:17;;;;;;;0.53;0.53;;;11.10;78.20;;;;;;4946262;28;20285;-71
2021/10/12 00:56:44;;;;;;;0.80;0.80;;;11.10;78.90;;;;;;4949000;29;20320;-71
2021/10/12 00:59:12;;;;;;;1.00;0.67;;;11.00;79.20;;;;;;4946973;29;20293;-71
2021/10/12 01:01:40;;;;;;;1.53;1.43;;;11.00;79.40;;;;;;4954243;29;20614;-71
2021/10/12 01:04:09;;;;;;;0.40;0.40;;;10.90;79.50;;;;;;4959245;28;20215;-71
2021/10/12 01:06:38;;;;;;;1.13;1.13;;;10.90;79.50;;;;;;4945954;28;20214;-71
2021/10/12 01:09:05;;;;;;;0.57;0.40;;;10.90;79.50;;;;;;4964419;28;20230;-71
2021/10/12 01:11:35;;;;;;;0.67;0.67;;;10.90;79.50;;;;;;4944219;28;20214;-71
2021/10/12 01:14:03;;;;;;;1.60;1.50;;;10.90;79.40;;;;;;4943510;29;20222;-71
2021/10/12 01:16:31;;;;;;;9.10;1.00;;;10.90;79.40;;;;;;4947016;28;20355;-70
2021/10/12 01:19:05;;;;;;;1.13;0.37;;;10.90;79.40;;;;;;4945237;29;21537;-70
2021/10/12 01:21:40;;;;;;;1.20;0.90;;;10.90;79.30;;;;;;4961717;28;20237;-70
2021/10/12 01:24:08;;;;;;;0.67;0.67;;;10.90;79.30;;;;;;4953973;29;20421;-70
2021/10/12 01:26:35;;;;;;;0.40;0.40;;;10.90;79.20;;;;;;4946695;29;20674;-70
2021/10/12 01:29:04;;;;;;;0.90;0.90;;;10.90;79.20;;;;;;4950227;28;20613;-70
2021/10/12 01:31:32;;;;;;;1.33;1.33;;;10.90;79.20;;;;;;4944839;29;20218;-71
2021/10/12 01:34:00;;;;;;;2.67;1.30;;;10.90;79.30;;;;;;4945935;29;20218;-71
2021/10/12 01:36:28;;;;;;;18.03;2.03;;;10.90;79.30;;;;;;4950630;28;20228;-71
2021/10/12 01:38:55;;;;;;;1.10;0.93;;;10.80;79.30;;;;;;4946692;29;20215;-71
2021/10/12 01:41:22;;;;;;;1.50;1.40;;;10.80;79.40;;;;;;4943931;28;20294;-71
2021/10/12 01:43:50;;;;;;;1.00;1.00;;;10.70;79.60;;;;;;4953007;29;20280;-71
2021/10/12 01:46:17;;;;;;;0.93;0.90;;;10.70;79.70;;;;;;4948678;28;20206;-71
2021/10/12 01:48:43;;;;;;;0.83;0.83;;;10.60;79.70;;;;;;4945140;28;20211;-71
2021/10/12 01:51:10;;;;;;;0.60;0.60;;;10.60;79.90;;;;;;4950727;29;20206;-71
2021/10/12 01:53:38;;;;;;;1.90;0.50;;;10.60;80.00;;;;;;4960434;28;20289;-71
2021/10/12 01:56:06;;;;;;;10.17;1.23;;;10.60;80.20;;;;;;4947084;28;20288;-71
2021/10/12 01:58:34;;;;;;;2.10;0.70;;;10.50;80.20;;;;;;4946770;28;20285;-71
2021/10/12 02:01:01;;;;;;;0.33;0.33;;;10.50;80.30;;;;;;4948304;28;20317;-71
2021/10/12 02:03:29;;;;;;;1.00;0.53;;;10.40;80.40;;;;;;4945240;28;20218;-71
2021/10/12 02:05:55;;;;;;;1.37;1.30;;;10.40;80.60;;;;;;4947913;29;20222;-71
2021/10/12 02:08:22;;;;;;;0.93;0.93;;;10.40;80.70;;;;;;4945381;29;20222;-71
2021/10/12 02:10:50;;;;;;;4.50;1.37;;;10.40;80.80;;;;;;4958380;28;20222;-71
2021/10/12 02:13:17;;;;;;;0.30;0.30;;;10.30;80.90;;;;;;4941940;28;20285;-71
2021/10/12 02:15:44;;;;;;;0.30;0.30;;;10.30;81.00;;;;;;4948144;28;20577;-71
2021/10/12 02:18:11;;;;;;;1.07;0.97;;;10.30;81.80;;;;;;4951170;29;20215;-71
2021/10/12 02:20:38;;;;;;;0.53;0.53;;;10.30;81.30;;;;;;4944883;28;20717;-71
2021/10/12 02:23:05;;;;;;;0.30;0.30;;;10.30;81.40;;;;;;4947487;29;20213;-71
2021/10/12 02:25:32;;;;;;;0.30;0.30;;;10.20;81.50;;;;;;4943722;28;20246;-71
2021/10/12 02:27:59;;;;;;;0.63;0.63;;;10.20;81.60;;;;;;4948229;28;20699;-71
2021/10/12 02:30:26;;;;;;;0.70;0.70;;;10.20;81.70;;;;;;4947008;29;20297;-71
2021/10/12 02:32:53;;;;;;;0.23;0.23;;;10.20;81.80;;;;;;4945502;29;20335;-71
2021/10/12 02:35:20;;;;;;;1.57;1.47;;;10.20;81.70;;;;;;4944189;28;20222;-71
2021/10/12 02:37:47;;;;;;;0.50;0.50;;;10.20;81.60;;;;;;4945530;28;20291;-71
2021/10/12 02:40:15;;;;;;;1.00;0.87;;;10.10;81.60;;;;;;4946326;28;20332;-71
2021/10/12 02:42:41;;;;;;;0.50;0.50;;;10.10;81.60;;;;;;4940231;28;20210;-71
2021/10/12 02:45:09;;;;;;;0.80;0.27;;;10.10;81.50;;;;;;4943943;29;20222;-71
2021/10/12 02:47:38;;;;;;;1.00;0.57;;;10.00;81.40;;;;;;4944641;29;20228;-71
2021/10/12 02:50:06;;;;;;;2.47;1.93;;;10.00;82.10;;;;;;4947895;28;20214;-71
2021/10/12 02:52:34;;;;;;;0.50;0.50;;;10.00;81.50;;;;;;4951919;28;20916;-71
2021/10/12 02:55:03;;;;;;;6.13;2.63;;;9.90;81.70;;;;;;4945418;29;20701;-71
2021/10/12 02:57:32;;;;;;;0.73;0.60;;;9.90;81.70;;;;;;4950863;29;20577;-71
2021/10/12 03:00:00;;;;;;;0.60;0.60;;;9.80;81.90;;;;;;4943518;28;20253;-71
2021/10/12 03:02:27;;;;;;;0.93;0.20;;;9.80;82.10;;;;;;4944064;29;20218;-71
2021/10/12 03:04:54;;;;;;;0.23;0.23;;;9.80;82.20;;;;;;4945303;28;20572;-71
2021/10/12 03:07:21;;;;;;;0.80;0.80;;;9.80;82.10;;;;;;4945285;29;20222;-71
2021/10/12 03:09:48;;;;;;;1.23;1.13;;;9.80;82.10;;;;;;4945045;28;20615;-71
2021/10/12 03:12:15;;;;;;;1.77;1.03;;;9.90;82.20;;;;;;4938807;28;20285;-71
2021/10/12 03:14:42;;;;;;;1.17;1.07;;;9.80;82.10;;;;;;4943528;29;20222;-71
2021/10/12 03:17:09;;;;;;;2.63;2.43;;;9.90;82.10;;;;;;4961761;28;20220;-71
2021/10/12 03:19:36;;;;;;;2.60;0.53;;;9.90;82.10;;;;;;4943923;29;20320;-71
2021/10/12 03:22:14;;;;;;;1.07;1.00;;;9.90;82.00;;;;;;4945697;28;20610;-71
2021/10/12 03:24:42;;;;;;;4.93;1.43;;;9.90;81.90;;;;;;4947505;29;20214;-71
2021/10/12 03:27:11;;;;;;;1.30;0.57;;;9.90;82.00;;;;;;4946658;29;20237;-71
2021/10/12 03:29:39;;;;;;;0.40;0.40;;;9.90;82.10;;;;;;4944218;29;20590;-71
2021/10/12 03:32:06;;;;;;;0.37;0.37;;;9.80;82.00;;;;;;4945477;28;20225;-71
2021/10/12 03:34:34;;;;;;;0.17;0.17;;;9.70;82.20;;;;;;4944267;29;20226;-71
2021/10/12 03:37:02;;;;;;;0.90;0.90;;;9.70;82.60;;;;;;4951317;28;20225;-71
2021/10/12 03:39:29;;;;;;;3.50;0.97;;;9.60;82.90;;;;;;4945929;29;20248;-71
2021/10/12 03:41:56;;;;;;;4.03;0.80;;;9.60;82.90;;;;;;4941203;28;20222;-71
2021/10/12 03:44:29;;;;;;;0.87;0.83;;;9.60;83.10;;;;;;4943935;29;20218;-69
2021/10/12 03:46:56;;;;;;;2.23;0.47;;;9.60;83.10;;;;;;4944958;29;20225;-69
2021/10/12 03:49:24;;;;;;;0.10;0.10;;;9.60;82.90;;;;;;4960375;28;20219;-70
2021/10/12 03:51:51;;;;;;;0.33;0.33;;;9.70;82.90;;;;;;4946515;29;20273;-70
2021/10/12 03:54:18;;;;;;;0.60;0.60;;;9.60;82.90;;;;;;4944479;28;20214;-70
2021/10/12 03:56:45;;;;;;;0.40;0.40;;;9.70;83.20;;;;;;4946474;29;20214;-70
2021/10/12 03:59:13;;;;;;;1.30;1.03;;;9.60;83.90;;;;;;4957801;28;20218;-70
2021/10/12 04:01:40;;;;;;;0.97;0.97;;;9.60;83.20;;;;;;4943753;29;20246;-70
2021/10/12 04:04:07;;;;;;;0.87;0.87;;;9.60;83.10;;;;;;4952142;28;20252;-70
2021/10/12 04:06:34;;;;;;;0.30;0.30;;;9.50;83.10;;;;;;4944235;29;20258;-70
2021/10/12 04:09:01;;;;;;;1.63;1.20;;;9.50;83.20;;;;;;4950826;29;20530;-70
2021/10/12 04:11:29;;;;;;;0.50;0.50;;;9.50;83.20;;;;;;4942038;28;20305;-70
2021/10/12 04:13:56;;;;;;;0.80;0.80;;;9.50;83.30;;;;;;4942188;29;20225;-70
2021/10/12 04:16:23;;;;;;;0.83;0.83;;;9.40;83.50;;;;;;4954000;28;20545;-70
2021/10/12 04:18:50;;;;;;;5.87;0.83;;;9.40;83.60;;;;;;4961858;28;20222;-70
2021/10/12 04:21:17;;;;;;;0.37;0.37;;;9.40;83.60;;;;;;4955743;28;20241;-69
2021/10/12 04:23:44;;;;;;;4.03;1.47;;;9.40;83.60;;;;;;4947788;29;20654;-70
2021/10/12 04:26:14;;;;;;;1.80;1.70;;;9.40;83.70;;;;;;4947691;28;20308;-70
2021/10/12 04:28:41;;;;;;;0.37;0.37;;;9.40;83.80;;;;;;4949958;29;20210;-70
2021/10/12 04:31:08;;;;;;;0.50;0.50;;;9.40;83.70;;;;;;4948256;28;20217;-70
2021/10/12 04:33:35;;;;;;;0.60;0.60;;;9.50;83.80;;;;;;4953440;29;20223;-69
2021/10/12 04:36:03;;;;;;;0.20;0.20;;;9.50;83.80;;;;;;4949297;28;20226;-69
2021/10/12 04:38:30;;;;;;;0.40;0.40;;;9.50;83.80;;;;;;4947101;29;20230;-69
2021/10/12 04:40:57;;;;;;;0.70;0.70;;;9.50;83.70;;;;;;4944162;28;20281;-69
2021/10/12 04:43:24;;;;;;;1.20;0.43;;;9.50;83.60;;;;;;4951426;28;20268;-70
2021/10/12 04:45:52;;;;;;;0.57;0.57;;;9.60;83.60;;;;;;4948932;29;21258;-70
2021/10/12 04:48:19;;;;;;;2.00;1.47;;;9.60;83.60;;;;;;4950140;29;20217;-70
2021/10/12 04:50:46;;;;;;;0.50;0.50;;;9.60;83.50;;;;;;4949427;28;20293;-70
2021/10/12 04:53:13;;;;;;;0.40;0.40;;;9.60;83.40;;;;;;4946156;29;20214;-70
2021/10/12 04:55:41;;;;;;;0.37;0.37;;;9.60;83.40;;;;;;4954406;28;20266;-70
2021/10/12 04:58:09;;;;;;;2.00;1.90;;;9.60;83.50;;;;;;4949632;28;20225;-70
2021/10/12 05:00:36;;;;;;;0.30;0.30;;;9.50;83.40;;;;;;4949794;28;20242;-70
2021/10/12 05:03:04;;;;;;;1.70;1.60;;;9.50;83.50;;;;;;4949877;28;20218;-70
2021/10/12 05:05:33;;;;;;;0.87;0.87;;;9.50;83.50;;;;;;4945333;28;20236;-70
2021/10/12 05:08:01;;;;;;;0.60;0.60;;;9.50;83.50;;;;;;4945918;29;20711;-70
2021/10/12 05:10:28;;;;;;;1.07;1.07;;;9.50;83.50;;;;;;4945269;28;20531;-70
2021/10/12 05:12:55;;;;;;;0.93;0.93;;;9.50;83.40;;;;;;4942493;28;20690;-70
2021/10/12 05:15:27;;;;;;;2.13;0.93;;;9.50;83.50;;;;;;4948790;29;20289;-70
2021/10/12 05:17:56;;;;;;;0.47;0.47;;;9.60;83.60;;;;;;4948442;29;20313;-69
2021/10/12 05:20:23;;;;;;;1.00;1.00;;;9.60;83.60;;;;;;4952366;28;20316;-70
2021/10/12 05:22:50;;;;;;;0.30;0.30;;;9.70;83.60;;;;;;4945239;29;20222;-70
2021/10/12 05:25:17;;;;;;;1.03;0.93;;;9.70;83.60;;;;;;4948733;29;20228;-70
2021/10/12 05:27:45;;;;;;;2.00;1.90;;;9.80;83.60;;;;;;4948048;28;20210;-70
2021/10/12 05:30:12;;;;;;;2.00;1.90;;;9.90;83.60;;;;;;4949057;28;20214;-70
2021/10/12 05:32:40;;;;;;;0.87;0.87;;;9.90;83.50;;;;;;4948487;28;20314;-70
2021/10/12 05:35:08;;;;;;;3.13;1.03;;;10.00;83.50;;;;;;4946467;28;20226;-70
2021/10/12 05:37:36;;;;;;;2.43;1.27;;;10.00;83.40;;;;;;4948849;29;20528;-70
2021/10/12 05:40:05;;;;;;;0.93;0.93;;;10.00;83.30;;;;;;4961903;28;20218;-70
2021/10/12 05:42:32;;;;;;;2.73;1.53;;;10.10;83.40;;;;;;4947279;28;20627;-70
2021/10/12 05:45:00;;;;;;;0.43;0.43;;;10.10;83.10;;;;;;4946791;28;20214;-70
2021/10/12 05:47:28;;;;;;;2.27;1.20;;;10.20;83.20;;;;;;4946466;28;20215;-70
2021/10/12 05:49:55;;;;;;;0.70;0.70;;;10.20;83.20;;;;;;4963344;28;20222;-70
2021/10/12 05:52:24;;;;;;;0.57;0.57;;;10.20;83.20;;;;;;4963525;28;20607;-70
2021/10/12 05:55:06;;;;;;;0.50;0.50;;;10.20;83.30;;;;;;4951290;29;20218;-70
2021/10/12 05:57:41;;;;;;;1.87;1.77;;;10.30;83.50;;;;;;4947120;29;20546;-70
2021/10/12 06:00:08;;;;;;;1.00;0.67;;;10.40;83.50;;;;;;4947944;28;20237;-70
2021/10/12 06:02:36;;;;;;;15.17;2.03;;;10.40;83.30;;;;;;4947897;28;20214;-70
2021/10/12 06:05:03;;;;;;;0.20;0.20;;;10.40;83.30;;;;;;4946845;28;20292;-71
2021/10/12 06:07:30;;;;;;;1.13;1.13;;;10.40;83.30;;;;;;4946438;29;20602;-70
2021/10/12 06:09:58;;;;;;;4.23;0.83;;;10.50;83.30;;;;;;4947742;28;20224;-70
2021/10/12 06:12:25;;;;;;;0.93;0.93;;;10.50;83.30;;;;;;4947846;28;20236;-70
2021/10/12 06:14:52;;;;;;;2.53;2.27;;;10.60;83.20;;;;;;4962224;28;20301;-70
2021/10/12 06:17:19;;;;;;;0.40;0.40;;;10.60;83.00;;;;;;4947240;28;20218;-70
2021/10/12 06:19:46;;;;;;;0.77;0.63;;;10.60;83.60;;;;;;4947222;28;20642;-70
2021/10/12 06:22:13;;;;;;;0.40;0.40;;;10.60;83.10;;;;;;4945106;29;20464;-70
2021/10/12 06:24:40;;;;;;;1.90;1.80;;;10.60;83.30;;;;;;4946333;28;20229;-70
2021/10/12 06:27:07;;;;;;;1.20;1.03;;;10.60;83.20;;;;;;4946108;29;20243;-70
2021/10/12 06:29:34;;;;;;;0.97;0.83;;;10.60;83.10;;;;;;4944746;28;20625;-70
2021/10/12 06:32:01;;;;;;;0.60;0.60;;;10.70;83.10;;;;;;4945707;29;20217;-70
2021/10/12 06:34:28;;;;;;;1.40;1.30;;;10.70;83.10;;;;;;4944444;28;20230;-70
2021/10/12 06:36:56;;;;;;;1.93;1.57;;;10.80;83.00;;;;;;4947047;28;20299;-70
2021/10/12 06:39:24;;;;;;;0.97;0.97;;;10.80;83.00;;;;;;4945317;28;20222;-70
2021/10/12 06:41:50;;;;;;;1.07;0.97;;;10.90;83.10;;;;;;4946028;28;20245;-70
2021/10/12 06:44:18;;;;;;;0.27;0.27;;;11.00;83.00;;;;;;4946189;29;20214;-70
2021/10/12 06:46:46;;;;;;;0.63;0.63;;;11.00;82.90;;;;;;4944968;28;20221;-70
2021/10/12 06:49:13;;;;;;;0.70;0.70;;;11.10;82.90;;;;;;4946052;29;20218;-70
2021/10/12 06:51:40;;;;;;;2.13;0.93;;;11.20;82.70;;;;;;4952982;28;20214;-70
2021/10/12 06:54:14;;;;;;;0.97;0.97;;;11.30;83.40;;;;;;4944670;29;20257;-70
2021/10/12 06:56:42;;;;;;;2.40;1.50;;;11.40;82.60;;;;;;4945056;29;20217;-70
2021/10/12 06:59:10;;;;;;;0.40;0.40;;;11.60;82.40;;;;;;4946359;29;20570;-70
2021/10/12 07:01:37;;;;;;;1.60;1.50;;;11.70;81.90;;;;;;4943151;28;20310;-69
2021/10/12 07:04:05;;;;;;;0.33;0.33;;;11.80;81.70;;;;;;4946644;29;20622;-70
2021/10/12 07:06:31;;;;;;;2.63;2.43;;;11.90;81.50;;;;;;4943245;29;20277;-70
2021/10/12 07:08:58;;;;;;;1.40;1.33;;;12.00;81.30;;;;;;4946212;28;20214;-70
2021/10/12 07:11:25;;;;;;;2.27;0.97;;;12.10;81.20;;;;;;4942755;28;20218;-71
2021/10/12 07:13:52;;;;;;;0.87;0.83;;;12.10;80.90;;;;;;4945399;28;20230;-70
2021/10/12 07:16:21;;;;;;;4.17;3.77;;;12.20;80.50;;;;;;4945402;29;20233;-70
2021/10/12 07:18:48;;;;;;;0.80;0.80;;;12.20;80.30;;;;;;4949956;29;20643;-69
2021/10/12 07:21:16;;;;;;;1.97;1.70;;;12.20;80.40;;;;;;4945908;29;20256;-69
2021/10/12 07:23:44;;;;;;;2.37;1.60;;;12.30;80.50;;;;;;4943179;29;20237;-69
2021/10/12 07:26:11;;;;;;;5.87;2.47;;;12.30;81.20;;;;;;4945580;28;20246;-69
2021/10/12 07:28:38;;;;;;;0.97;0.73;;;12.30;80.70;;;;;;4959643;28;20223;-69
2021/10/12 07:31:05;;;;;;;1.73;1.63;;;12.40;80.80;;;;;;4948921;28;20228;-70
2021/10/12 07:33:33;;;;;;;1.57;1.47;;;12.60;80.70;;;;;;4944591;29;20222;-70
2021/10/12 07:36:01;;;;;;;2.00;1.40;;;12.70;80.40;;;;;;4953528;28;20296;-70
2021/10/12 07:38:28;;;;;;;3.63;1.40;;;12.80;80.30;;;;;;4953347;28;20284;-70
2021/10/12 07:40:55;;;;;;;1.30;1.23;;;12.90;80.10;;;;;;4953862;28;20695;-70
2021/10/12 07:43:22;;;;;;;3.03;2.83;;;13.00;79.60;;;;;;4972029;28;20221;-71
2021/10/12 07:45:50;;;;;;;0.93;0.93;;;13.10;79.40;;;;;;4988435;28;20689;-70
2021/10/12 07:48:18;;;;;;;0.70;0.70;;;13.20;79.10;;;;;;4973267;28;20566;-70
2021/10/12 07:50:46;;;;;;;3.70;2.30;;;13.30;78.90;;;;;;4977949;28;20221;-70
2021/10/12 07:53:13;;;;;;;1.60;1.43;;;13.30;78.80;;;;;;4954110;28;20213;-70
2021/10/12 07:55:48;;;;;;;1.93;1.30;;;13.40;78.50;;;;;;4953789;28;20221;-70
2021/10/12 07:58:15;;;;;;;1.10;0.83;;;13.50;78.40;;;;;;4954627;28;20313;-71
2021/10/12 08:00:43;;;;;;;6.63;1.77;;;13.60;78.20;;;;;;4953941;28;20217;-70
2021/10/12 08:03:11;;;;;;;3.73;3.40;;;13.70;78.00;;;;;;4954420;28;20354;-70
2021/10/12 08:05:38;;;;;;;0.97;0.97;;;13.80;77.70;;;;;;4968100;28;20600;-70
2021/10/12 08:08:05;;;;;;;1.33;1.33;;;14.00;77.60;;;;;;4968659;28;20642;-70
2021/10/12 08:10:34;;;;;;;0.63;0.47;;;14.10;76.70;;;;;;4952652;28;20217;-71
2021/10/12 08:13:05;;;;;;;1.30;1.20;;;14.30;76.70;;;;;;4969105;28;20221;-70
2021/10/12 08:15:32;;;;;;;1.47;1.37;;;14.40;76.60;;;;;;4973351;28;20615;-70
2021/10/12 08:17:59;;;;;;;3.60;2.53;;;14.50;76.20;;;;;;4973614;28;20213;-70
2021/10/12 08:20:27;;;;;;;1.27;1.17;;;14.60;75.90;;;;;;4972587;28;20213;-70
2021/10/12 08:22:55;;;;;;;1.10;1.03;;;14.60;75.80;;;;;;4987947;28;20597;-70
2021/10/12 08:25:22;;;;;;;1.13;0.63;;;14.70;75.80;;;;;;4972563;28;20220;-70
2021/10/12 08:27:49;;;;;;;2.77;1.80;;;14.80;75.50;;;;;;4973493;28;20553;-69
2021/10/12 08:30:17;;;;;;;1.13;0.67;;;14.90;74.90;;;;;;4988428;28;20244;-70
2021/10/12 08:32:44;;;;;;;1.40;0.90;;;15.00;74.80;;;;;;4973124;28;20216;-70
2021/10/12 08:35:12;;;;;;;0.60;0.60;;;15.00;74.50;;;;;;4972770;28;20606;-70
2021/10/12 08:37:40;;;;;;;3.67;1.17;;;15.10;74.20;;;;;;4965285;28;20633;-70
2021/10/12 08:40:16;;;;;;;1.90;1.80;;;15.10;74.00;;;;;;4944842;28;20225;-70
2021/10/12 08:42:47;;;;;;;1.40;1.37;;;15.20;74.10;;;;;;4950959;28;20663;-70
2021/10/12 08:45:16;;;;;;;0.67;0.43;;;15.30;73.90;;;;;;4950084;29;20230;-70
2021/10/12 08:47:44;;;;;;;0.83;0.63;;;15.30;73.60;;;;;;4945732;29;20213;-70
2021/10/12 08:50:15;;;;;;;1.53;1.43;;;15.40;73.60;;;;;;4945884;29;20214;-70
2021/10/12 08:52:44;;;;;;;1.67;1.57;;;15.60;73.40;;;;;;4957884;28;20223;-70
2021/10/12 08:55:13;;;;;;;0.70;0.70;;;15.90;73.00;;;;;;4943702;28;20570;-70
2021/10/12 08:57:43;;;;;;;0.80;0.80;;;16.30;72.30;;;;;;4944857;29;20224;-69
2021/10/12 09:00:12;;;;;;;0.70;0.70;;;16.60;70.90;;;;;;4942446;28;20265;-70
2021/10/12 09:02:57;;;;;;;1.43;1.33;;;16.90;69.10;;;;;;4945640;28;20727;-70
2021/10/12 09:05:26;;;;;;;2.17;1.73;;;17.20;68.30;;;;;;4963633;28;20537;-70
2021/10/12 09:07:57;;;;;;;0.97;0.93;;;17.40;66.80;;;;;;4944930;29;20215;-70
2021/10/12 09:10:24;;;;;;;0.80;0.80;;;17.50;65.70;;;;;;4947241;28;20726;-71
2021/10/12 09:12:55;;;;;;;0.40;0.40;;;17.50;66.30;;;;;;4948785;28;20229;-70
2021/10/12 09:15:22;;;;;;;0.87;0.87;;;17.50;66.50;;;;;;4963030;28;20221;-70
2021/10/12 09:17:52;;;;;;;0.70;0.70;;;17.60;66.40;;;;;;4945816;28;20301;-70
2021/10/12 09:20:22;;;;;;;1.77;0.93;;;17.60;66.30;;;;;;4949170;28;20297;-70
2021/10/12 09:23:05;;;;;;;0.23;0.23;;;17.50;66.30;;;;;;4947107;28;20238;-70
2021/10/12 09:25:35;;;;;;;0.30;0.30;;;17.70;65.90;;;;;;4963290;28;20242;-71
2021/10/12 09:28:03;;;;;;;0.30;0.30;;;18.00;62.80;;;;;;4946305;29;20252;-71
2021/10/12 09:30:34;;;;;;;2.43;1.63;;;18.10;63.00;;;;;;4946914;28;20674;-70
2021/10/12 09:33:05;;;;;;;0.60;0.60;;;18.30;62.80;;;;;;4951398;29;20305;-71
2021/10/12 09:35:33;;;;;;;0.17;0.17;;;18.40;62.70;;;;;;4945119;28;20222;-70
2021/10/12 09:38:04;;;;;;;1.07;1.07;;;18.30;62.10;;;;;;4945776;29;20222;-70
2021/10/12 09:40:34;;;;;;;3.23;1.37;;;18.10;62.80;;;;;;4944298;28;20232;-70
2021/10/12 09:43:01;;;;;;;0.47;0.47;;;18.00;62.60;;;;;;4948251;28;20238;-70
2021/10/12 09:45:43;;;;;;;1.40;1.30;;;17.90;63.10;;;;;;4947648;29;20276;-70
2021/10/12 09:48:37;;;;;;;0.67;0.60;;;18.10;63.20;;;;;;4946873;29;20211;-70
2021/10/12 09:51:12;;;;;;;0.50;0.50;;;18.20;62.50;;;;;;4963774;28;20589;-70
2021/10/12 09:53:42;;;;;;;1.70;1.03;;;18.40;61.80;;;;;;4945693;28;20214;-70
2021/10/12 09:56:11;;;;;;;0.93;0.93;;;18.40;61.20;;;;;;4944401;29;20248;-71
2021/10/12 09:58:39;;;;;;;0.50;0.50;;;18.50;61.50;;;;;;4947543;28;20213;-70
2021/10/12 10:01:08;;;;;;;0.30;0.30;;;18.40;60.20;;;;;;4946016;29;20214;-70
2021/10/12 10:03:36;;;;;;;0.10;0.10;;;18.20;60.80;;;;;;4950984;28;20653;-70
2021/10/12 10:06:11;;;;;;;1.60;1.30;;;18.00;61.30;;;;;;4948461;28;20277;-70
2021/10/12 10:08:47;;;;;;;0.57;0.57;;;17.80;61.80;;;;;;4960677;28;20214;-70
2021/10/12 10:11:36;;;;;;;0.73;0.73;;;17.70;62.60;;;;;;4954001;28;20534;-70
2021/10/12 10:14:05;;;;;;;0.23;0.23;;;17.50;62.70;;;;;;4946274;28;20280;-70
2021/10/12 10:16:33;;;;;;;1.20;1.20;;;17.60;62.80;;;;;;4946934;29;20229;-70
2021/10/12 10:19:01;;;;;;;0.47;0.47;;;17.50;62.80;;;;;;4951958;29;20224;-70
2021/10/12 10:21:28;;;;;;;0.83;0.83;;;17.70;63.10;;;;;;4944159;29;20714;-70
2021/10/12 10:24:02;;;;;;;1.90;0.53;;;18.00;62.00;;;;;;4954139;29;20214;-69
2021/10/12 10:26:36;;;;;;;0.40;0.40;;;18.10;62.10;;;;;;4946029;29;20340;-68
2021/10/12 10:29:28;;;;;;;0.70;0.70;;;18.40;60.50;;;;;;4944412;28;20237;-68
2021/10/12 10:32:19;;;;;;;0.90;0.87;;;18.50;59.90;;;;;;4946422;29;20713;-68
2021/10/12 10:35:03;;;;;;;0.30;0.30;;;18.70;60.10;;;;;;4944469;28;20309;-68
2021/10/12 10:37:33;;;;;;;2.00;1.90;;;19.00;59.50;;;;;;4946405;29;20304;-68
2021/10/12 10:40:02;;;;;;;1.60;0.77;;;19.30;57.90;;;;;;4959396;28;20214;-68
2021/10/12 10:42:40;;;;;;;0.87;0.87;;;19.40;57.70;;;;;;4951226;28;20628;-69
2021/10/12 10:45:11;;;;;;;0.13;0.13;;;19.50;56.90;;;;;;4952128;29;20221;-69
2021/10/12 10:47:44;;;;;;;0.70;0.70;;;19.50;57.10;;;;;;4946156;29;20209;-68
2021/10/12 10:50:29;;;;;;;1.03;0.97;;;19.50;56.40;;;;;;4947431;29;20559;-68
2021/10/12 10:52:58;;;;;;;0.57;0.57;;;19.40;57.60;;;;;;4948132;29;20222;-68
2021/10/12 10:55:28;;;;;;;1.20;1.20;;;19.60;56.90;;;;;;4944175;29;20231;-68
2021/10/12 10:58:13;;;;;;;0.30;0.30;;;19.70;57.20;;;;;;4946223;28;20650;-68
2021/10/12 11:00:49;;;;;;;0.40;0.40;;;19.70;57.70;;;;;;4944217;29;20252;-70
2021/10/12 11:03:32;;;;;;;0.17;0.17;;;19.70;57.20;;;;;;4947408;29;20238;-70
2021/10/12 11:06:14;;;;;;;0.70;0.70;;;19.60;58.00;;;;;;4944451;28;20226;-70
2021/10/12 11:08:58;;;;;;;0.10;0.10;;;19.50;57.60;;;;;;4944665;28;20601;-71
2021/10/12 11:11:31;;;;;;;0.67;0.50;;;19.40;58.50;;;;;;4942907;28;20605;-70
2021/10/12 11:13:59;;;;;;;0.40;0.40;;;19.20;58.80;;;;;;4944385;28;20277;-70
2021/10/12 11:16:36;;;;;;;1.10;0.20;;;19.20;58.90;;;;;;4942701;29;20241;-70
2021/10/12 11:19:05;;;;;;;1.03;1.03;;;19.30;59.40;;;;;;4951626;29;20301;-70
2021/10/12 11:21:32;;;;;;;0.37;0.37;;;19.60;58.90;;;;;;4951531;28;20239;-70
2021/10/12 11:24:02;;;;;;;0.70;0.70;;;19.90;58.30;;;;;;4947340;28;20214;-70
2021/10/12 11:26:30;;;;;;;0.63;0.63;;;20.20;57.80;;;;;;4946778;28;20242;-70
2021/10/12 11:29:03;;;;;;;0.70;0.70;;;20.50;56.70;;;;;;4948060;29;20214;-70
2021/10/12 11:31:31;;;;;;;1.37;1.27;;;20.70;56.40;;;;;;4944183;29;20233;-70
2021/10/12 11:34:02;;;;;;;0.50;0.50;;;20.90;55.30;;;;;;4946466;29;20214;-70
2021/10/12 11:36:32;;;;;;;0.20;0.20;;;21.10;55.80;;;;;;4953178;29;20224;-70
2021/10/12 11:39:05;;;;;;;0.27;0.27;;;21.30;55.50;;;;;;4943896;29;20215;-70
2021/10/12 11:41:39;;;;;;;0.60;0.60;;;21.50;55.10;;;;;;4940422;28;20309;-70
2021/10/12 11:44:16;;;;;;;0.60;0.60;;;21.70;54.10;;;;;;4942589;29;20219;-70
2021/10/12 11:46:59;;;;;;;1.20;0.93;;;21.70;54.00;;;;;;4944574;28;20646;-70
2021/10/12 11:49:27;;;;;;;1.90;1.10;;;21.70;53.80;;;;;;4947039;28;20226;-70
2021/10/12 11:51:54;;;;;;;1.17;1.17;;;21.80;53.60;;;;;;4946353;28;20218;-70
2021/10/12 11:54:23;;;;;;;0.80;0.80;;;21.70;54.10;;;;;;4944917;28;20217;-72
2021/10/12 11:56:51;;;;;;;0.63;0.63;;;21.50;54.60;;;;;;4944129;29;20221;-71
2021/10/12 11:59:18;;;;;;;0.60;0.60;;;21.30;54.60;;;;;;4943268;28;20606;-70
2021/10/12 12:01:46;;;;;;;1.07;0.60;;;21.10;55.40;;;;;;4946078;29;20221;-70
2021/10/12 12:04:31;;;;;;;0.73;0.20;;;20.90;55.00;;;;;;4945153;29;20242;-70
2021/10/12 12:07:05;;;;;;;1.50;1.03;;;20.80;55.40;;;;;;4949733;29;20249;-70
2021/10/12 12:09:33;;;;;;;0.30;0.30;;;20.80;55.50;;;;;;4944982;28;20213;-70
2021/10/12 12:12:01;;;;;;;2.00;1.20;;;20.70;55.60;;;;;;4940356;29;20253;-70
2021/10/12 12:14:29;;;;;;;4.10;0.60;;;20.70;55.30;;;;;;4951056;29;20228;-70
2021/10/12 12:17:27;;;;;;;3.93;0.87;;;20.70;55.70;;;;;;4960236;28;20226;-70
2021/10/12 12:19:56;;;;;;;0.57;0.57;;;20.80;55.70;;;;;;4949906;28;20280;-71
2021/10/12 12:22:24;;;;;;;1.07;1.07;;;21.00;55.60;;;;;;4943089;29;20265;-70
2021/10/12 12:25:06;;;;;;;0.10;0.10;;;21.10;54.90;;;;;;4945463;28;20218;-70
2021/10/12 12:27:57;;;;;;;0.43;0.43;;;21.20;54.20;;;;;;4946084;29;20228;-70
2021/10/12 12:30:39;;;;;;;0.60;0.60;;;21.40;54.20;;;;;;4946002;29;20456;-70
2021/10/12 12:33:07;;;;;;;0.57;0.57;;;21.40;52.80;;;;;;4945042;29;20277;-70
2021/10/12 12:35:40;;;;;;;0.50;0.50;;;21.30;51.50;;;;;;4943935;28;20218;-70
2021/10/12 12:38:09;;;;;;;0.40;0.40;;;21.30;52.30;;;;;;4945068;28;20602;-70
2021/10/12 12:40:44;;;;;;;0.40;0.40;;;21.30;52.20;;;;;;4944965;28;20226;-70
2021/10/12 12:43:22;;;;;;;0.60;0.40;;;21.20;51.60;;;;;;4948978;29;20279;-70
2021/10/12 12:46:09;;;;;;;1.33;1.23;;;21.10;52.30;;;;;;4947349;29;20605;-70
2021/10/12 12:48:36;;;;;;;0.33;0.33;;;21.00;51.70;;;;;;4950319;28;20306;-70
2021/10/12 12:51:08;;;;;;;1.07;0.93;;;20.90;51.80;;;;;;4950110;28;20206;-70
2021/10/12 12:53:40;;;;;;;0.83;0.83;;;20.80;51.90;;;;;;4947570;28;20697;-70
2021/10/12 12:56:12;;;;;;;0.60;0.60;;;20.70;52.70;;;;;;4948177;29;20233;-70
2021/10/12 12:58:41;;;;;;;0.20;0.20;;;20.70;51.60;;;;;;4952474;29;20217;-70